Time;durP1;ratioP1;P1;durP2;ratioP2;P2;SDS_P1;SDS_P2;PMS_P1;PMS_P2;Temp;Humidity;BMP_temperature;BMP_pressure;BME280_temperature;BME280_humidity;BME280_pressure;Samples;Min_cycle;Max_cycle;Signal;HPM_P1;HPM_P2
2024/04/11 00:01:29;;;;;;;0.67;0.30;;;9.90;99.90;;;;;;5567350;25;20494;-61
2024/04/11 00:03:55;;;;;;;0.70;0.30;;;9.80;99.90;;;;;;5567472;25;20594;-62
2024/04/11 00:06:24;;;;;;;0.53;0.30;;;9.80;99.90;;;;;;5567459;25;20447;-60
2024/04/11 00:08:51;;;;;;;0.50;0.30;;;9.70;99.90;;;;;;5567168;25;20944;-60
2024/04/11 00:11:20;;;;;;;0.70;0.40;;;9.70;99.90;;;;;;5566809;25;20459;-60
2024/04/11 00:13:46;;;;;;;0.40;0.20;;;9.70;99.90;;;;;;5566450;25;20928;-59
2024/04/11 00:16:18;;;;;;;0.70;0.23;;;9.70;99.90;;;;;;5549605;25;20441;-60
2024/04/11 00:18:44;;;;;;;0.53;0.20;;;9.70;99.90;;;;;;5528559;25;20500;-60
2024/04/11 00:21:16;;;;;;;1.33;0.30;;;9.70;99.90;;;;;;5529012;25;20907;-60
2024/04/11 00:23:42;;;;;;;3.93;0.50;;;9.70;99.90;;;;;;5530199;25;20500;-60
2024/04/11 00:26:10;;;;;;;0.50;0.30;;;9.60;99.90;;;;;;5528914;25;20460;-61
2024/04/11 00:28:37;;;;;;;0.50;0.30;;;9.60;99.90;;;;;;5546942;25;20459;-61
2024/04/11 00:31:07;;;;;;;0.80;0.33;;;9.50;99.90;;;;;;5564031;25;20462;-60
2024/04/11 00:33:37;;;;;;;0.53;0.20;;;9.50;99.90;;;;;;5566304;25;20463;-60
2024/04/11 00:36:07;;;;;;;1.07;0.50;;;9.50;99.90;;;;;;5566008;25;20467;-60
2024/04/11 00:38:33;;;;;;;0.57;0.40;;;9.50;99.90;;;;;;5567069;25;20454;-60
2024/04/11 00:41:02;;;;;;;2.10;0.40;;;9.50;99.90;;;;;;5564332;25;20482;-60
2024/04/11 00:43:30;;;;;;;0.77;0.37;;;9.50;1.00;;;;;;5566055;25;21016;-62
2024/04/11 00:46:00;;;;;;;0.97;0.33;;;9.50;1.00;;;;;;5554745;25;20490;-61
2024/04/11 00:48:26;;;;;;;0.50;0.27;;;9.50;1.00;;;;;;5528223;25;20507;-61
2024/04/11 00:51:00;;;;;;;6.83;0.37;;;9.60;1.00;;;;;;5528394;25;20464;-60
2024/04/11 00:53:29;;;;;;;1.13;0.30;;;9.60;1.00;;;;;;5527591;25;20453;-60
2024/04/11 00:55:58;;;;;;;1.13;0.33;;;9.60;1.00;;;;;;5528143;25;20530;-60
2024/04/11 00:58:25;;;;;;;1.40;0.20;;;9.60;99.90;;;;;;5529151;25;20850;-60
2024/04/11 01:00:54;;;;;;;0.50;0.40;;;9.60;1.00;;;;;;5528506;25;20565;-60
2024/04/11 01:03:21;;;;;;;0.87;0.40;;;9.50;1.00;;;;;;5528975;25;20512;-60
2024/04/11 01:05:51;;;;;;;2.57;0.30;;;9.40;1.00;;;;;;5528621;25;20994;-60
2024/04/11 01:08:25;;;;;;;1.30;0.20;;;9.50;1.00;;;;;;5538431;25;20463;-60
2024/04/11 01:10:54;;;;;;;0.70;0.33;;;9.50;1.00;;;;;;5564427;25;20447;-59
2024/04/11 01:13:23;;;;;;;0.80;0.50;;;9.60;1.00;;;;;;5563953;25;20448;-60
2024/04/11 01:15:50;;;;;;;0.77;0.30;;;9.60;1.00;;;;;;5555342;25;20456;-60
2024/04/11 01:18:19;;;;;;;0.70;0.30;;;9.60;1.00;;;;;;5559000;25;20471;-60
2024/04/11 01:20:45;;;;;;;2.07;0.30;;;9.70;1.00;;;;;;5563895;25;20518;-60
2024/04/11 01:23:17;;;;;;;0.97;0.40;;;9.70;1.00;;;;;;5565571;25;20523;-60
2024/04/11 01:25:43;;;;;;;0.90;0.43;;;9.70;1.00;;;;;;5566863;25;20485;-61
2024/04/11 01:28:12;;;;;;;0.60;0.37;;;9.70;1.00;;;;;;5565987;25;20435;-61
2024/04/11 01:30:38;;;;;;;0.67;0.33;;;9.60;1.00;;;;;;5564759;25;20447;-60
2024/04/11 01:33:09;;;;;;;0.57;0.30;;;9.50;1.00;;;;;;5566275;25;20497;-60
2024/04/11 01:35:36;;;;;;;1.40;0.27;;;9.30;1.00;;;;;;5566851;25;20794;-60
2024/04/11 01:38:05;;;;;;;1.40;0.40;;;9.20;1.00;;;;;;5566221;25;21195;-60
2024/04/11 01:40:34;;;;;;;0.97;0.40;;;9.20;1.00;;;;;;5564256;25;20439;-60
2024/04/11 01:43:04;;;;;;;1.00;0.40;;;9.10;1.00;;;;;;5564836;25;20797;-60
2024/04/11 01:45:31;;;;;;;0.50;0.30;;;9.10;1.00;;;;;;5561559;25;20689;-60
2024/04/11 01:48:00;;;;;;;0.97;0.50;;;9.00;1.00;;;;;;5527595;25;20452;-60
2024/04/11 01:50:26;;;;;;;3.10;0.30;;;8.80;99.90;;;;;;5527546;25;20783;-60
2024/04/11 01:52:56;;;;;;;1.93;0.30;;;8.70;99.90;;;;;;5528120;25;20444;-59
2024/04/11 01:55:22;;;;;;;0.80;0.37;;;8.60;1.00;;;;;;5529096;25;20491;-59
2024/04/11 01:57:53;;;;;;;1.07;0.20;;;8.60;1.00;;;;;;5528893;25;20460;-59
2024/04/11 02:00:19;;;;;;;1.67;0.40;;;8.60;1.00;;;;;;5535836;25;20466;-61
2024/04/11 02:02:49;;;;;;;0.60;0.37;;;8.50;1.00;;;;;;5564148;25;20547;-60
2024/04/11 02:05:20;;;;;;;1.23;0.30;;;8.40;1.00;;;;;;5563379;25;20562;-60
2024/04/11 02:07:48;;;;;;;0.57;0.30;;;8.40;1.00;;;;;;5562885;25;20482;-60
2024/04/11 02:10:15;;;;;;;0.50;0.37;;;8.50;1.00;;;;;;5563193;25;20557;-60
2024/04/11 02:12:44;;;;;;;0.40;0.20;;;8.50;1.00;;;;;;5563760;25;20723;-59
2024/04/11 02:15:14;;;;;;;0.63;0.30;;;8.60;1.00;;;;;;5564349;25;20933;-59
2024/04/11 02:17:43;;;;;;;1.30;0.40;;;8.70;1.00;;;;;;5489443;26;20458;-60
2024/04/11 02:20:10;;;;;;;1.97;0.43;;;8.70;1.00;;;;;;5491861;26;20514;-61
2024/04/11 02:22:40;;;;;;;1.07;0.40;;;8.90;99.90;;;;;;5491994;26;20438;-61
2024/04/11 02:25:07;;;;;;;0.83;0.50;;;8.90;99.90;;;;;;5491914;26;20474;-61
2024/04/11 02:27:38;;;;;;;0.70;0.30;;;9.00;99.90;;;;;;5490563;26;20710;-59
2024/04/11 02:30:09;;;;;;;0.60;0.40;;;9.00;99.90;;;;;;5489145;26;20520;-59
2024/04/11 02:32:41;;;;;;;0.50;0.30;;;9.00;99.90;;;;;;5561606;25;20789;-60
2024/04/11 02:35:10;;;;;;;0.70;0.20;;;9.00;99.90;;;;;;5560934;25;20564;-60
2024/04/11 02:37:39;;;;;;;0.90;0.40;;;9.00;99.90;;;;;;5560582;25;20854;-60
2024/04/11 02:40:07;;;;;;;0.60;0.30;;;9.00;99.90;;;;;;5563321;25;20447;-60
2024/04/11 02:42:37;;;;;;;0.93;0.50;;;9.00;99.90;;;;;;5564005;25;20523;-60
2024/04/11 02:45:04;;;;;;;0.53;0.30;;;8.80;99.90;;;;;;5563606;25;20770;-60
2024/04/11 02:47:33;;;;;;;0.90;0.50;;;8.60;1.00;;;;;;5539735;25;20467;-59
2024/04/11 02:50:01;;;;;;;0.53;0.30;;;8.60;1.00;;;;;;5535816;25;20585;-63
2024/04/11 02:52:30;;;;;;;0.97;0.40;;;8.60;1.00;;;;;;5547147;25;20568;-60
2024/04/11 02:54:56;;;;;;;0.50;0.30;;;8.60;1.00;;;;;;5562732;25;20760;-60
2024/04/11 02:57:26;;;;;;;1.17;0.40;;;8.60;1.00;;;;;;5562807;25;20494;-59
2024/04/11 02:59:53;;;;;;;0.50;0.30;;;8.60;1.00;;;;;;5562632;25;20724;-59
2024/04/11 03:02:23;;;;;;;1.47;0.40;;;8.70;1.00;;;;;;5563822;25;20869;-60
2024/04/11 03:04:51;;;;;;;2.23;0.30;;;8.60;1.00;;;;;;5563432;25;20861;-60
2024/04/11 03:07:23;;;;;;;0.80;0.30;;;8.60;1.00;;;;;;5561279;25;20489;-60
2024/04/11 03:09:51;;;;;;;0.67;0.30;;;8.50;1.00;;;;;;5561664;25;20504;-59
2024/04/11 03:12:19;;;;;;;0.50;0.20;;;8.50;1.00;;;;;;5564568;25;20447;-60
2024/04/11 03:14:46;;;;;;;1.47;0.40;;;8.50;1.00;;;;;;5564605;25;20455;-60
2024/04/11 03:17:15;;;;;;;0.50;0.30;;;8.40;1.00;;;;;;5532932;25;20464;-61
2024/04/11 03:19:41;;;;;;;1.63;0.30;;;8.40;1.00;;;;;;5526779;25;20460;-60
2024/04/11 03:22:10;;;;;;;0.70;0.30;;;8.30;1.00;;;;;;5527198;25;20448;-60
2024/04/11 03:24:38;;;;;;;1.10;0.40;;;8.20;34.20;;;;;;5525375;25;20521;-59
2024/04/11 03:27:07;;;;;;;4.87;0.37;;;8.20;92.30;;;;;;5525753;25;20512;-59
2024/04/11 03:29:33;;;;;;;0.60;0.37;;;8.20;1.00;;;;;;5526529;25;20512;-60
2024/04/11 03:32:02;;;;;;;9.20;0.50;;;8.20;55.10;;;;;;5528750;25;20440;-59
2024/04/11 03:34:28;;;;;;;0.77;0.40;;;8.10;99.90;;;;;;5527296;25;20491;-60
2024/04/11 03:36:58;;;;;;;0.40;0.30;;;8.10;1.00;;;;;;5525696;25;20527;-60
2024/04/11 03:39:25;;;;;;;1.10;0.40;;;8.10;1.00;;;;;;5556744;25;20477;-61
2024/04/11 03:41:56;;;;;;;0.97;0.33;;;8.20;1.00;;;;;;5566225;25;20507;-60
2024/04/11 03:44:25;;;;;;;0.60;0.30;;;8.20;1.00;;;;;;5563975;25;20505;-60
2024/04/11 03:46:53;;;;;;;1.10;0.43;;;8.20;1.00;;;;;;5538412;25;20436;-60
2024/04/11 03:49:22;;;;;;;0.50;0.30;;;8.30;1.00;;;;;;5518176;25;20492;-61
2024/04/11 03:51:51;;;;;;;3.50;0.50;;;8.40;1.00;;;;;;5564322;25;20464;-60
2024/04/11 03:54:17;;;;;;;0.50;0.40;;;8.40;99.90;;;;;;5566232;25;20463;-60
2024/04/11 03:56:46;;;;;;;0.50;0.30;;;8.40;99.90;;;;;;5566650;25;20724;-59
2024/04/11 03:59:15;;;;;;;0.50;0.30;;;8.40;99.90;;;;;;5565297;25;20507;-59
2024/04/11 04:01:44;;;;;;;0.60;0.30;;;8.40;99.90;;;;;;5564140;25;20439;-60
2024/04/11 04:04:10;;;;;;;1.90;0.30;;;8.40;99.90;;;;;;5562130;25;20503;-60
2024/04/11 04:06:42;;;;;;;0.50;0.30;;;8.50;99.90;;;;;;5563520;25;20459;-60
2024/04/11 04:09:08;;;;;;;1.23;0.50;;;8.50;1.00;;;;;;5532564;25;20986;-60
2024/04/11 04:11:38;;;;;;;0.60;0.30;;;8.50;1.00;;;;;;5527262;25;20516;-61
2024/04/11 04:14:08;;;;;;;0.80;0.30;;;8.50;1.00;;;;;;5527791;25;20457;-60
2024/04/11 04:16:41;;;;;;;0.50;0.40;;;8.40;99.90;;;;;;5527924;25;20429;-60
2024/04/11 04:19:07;;;;;;;1.37;0.30;;;8.50;67.30;;;;;;5528639;25;20549;-60
2024/04/11 04:21:36;;;;;;;0.60;0.30;;;8.50;1.00;;;;;;5528255;25;20456;-61
2024/04/11 04:24:05;;;;;;;0.63;0.40;;;8.40;1.00;;;;;;5528398;25;20505;-61
2024/04/11 04:26:34;;;;;;;1.07;0.40;;;8.40;1.00;;;;;;5527846;25;20476;-60
2024/04/11 04:29:00;;;;;;;0.67;0.43;;;8.40;1.00;;;;;;5532509;25;20549;-61
2024/04/11 04:31:31;;;;;;;0.93;0.40;;;8.40;1.00;;;;;;5565590;25;20488;-60
2024/04/11 04:34:00;;;;;;;1.20;0.30;;;8.30;1.00;;;;;;5566626;25;20458;-60
2024/04/11 04:36:33;;;;;;;1.57;0.37;;;8.20;1.00;;;;;;5565884;25;21028;-60
2024/04/11 04:38:59;;;;;;;0.70;0.30;;;8.30;1.00;;;;;;5562475;25;20796;-59
2024/04/11 04:41:29;;;;;;;0.73;0.40;;;8.30;1.00;;;;;;5563154;25;20716;-59
2024/04/11 04:43:57;;;;;;;0.67;0.47;;;8.30;1.00;;;;;;5563373;25;20498;-60
2024/04/11 04:46:28;;;;;;;0.43;0.30;;;8.30;99.90;;;;;;5563041;25;20447;-61
2024/04/11 04:48:55;;;;;;;0.70;0.40;;;8.10;99.90;;;;;;5573765;25;20541;-59
2024/04/11 04:51:26;;;;;;;0.60;0.40;;;8.10;1.00;;;;;;5583277;25;20475;-59
2024/04/11 04:53:53;;;;;;;1.00;0.60;;;8.10;99.90;;;;;;5564311;25;20462;-60
2024/04/11 04:56:22;;;;;;;0.77;0.43;;;8.10;99.90;;;;;;5562329;25;20467;-59
2024/04/11 04:58:49;;;;;;;0.70;0.40;;;8.10;99.90;;;;;;5561690;25;20439;-60
2024/04/11 05:01:18;;;;;;;1.30;0.60;;;8.00;1.00;;;;;;5563339;25;20800;-58
2024/04/11 05:03:45;;;;;;;1.13;0.57;;;8.10;91.00;;;;;;5560277;25;21183;-60
2024/04/11 05:06:13;;;;;;;0.70;0.40;;;8.20;99.90;;;;;;5561049;25;20450;-61
2024/04/11 05:08:46;;;;;;;0.63;0.47;;;8.20;99.90;;;;;;5560506;25;20462;-61
2024/04/11 05:11:15;;;;;;;1.47;0.40;;;8.20;1.00;;;;;;5557813;25;20503;-59
2024/04/11 05:13:43;;;;;;;0.70;0.43;;;8.20;1.00;;;;;;5556449;25;20577;-59
2024/04/11 05:16:18;;;;;;;1.53;0.50;;;8.20;1.00;;;;;;5558058;25;20442;-60
2024/04/11 05:18:46;;;;;;;2.00;0.50;;;8.20;1.00;;;;;;5556034;25;20912;-60
2024/04/11 05:21:19;;;;;;;0.60;0.40;;;8.10;1.00;;;;;;5560250;25;20787;-60
2024/04/11 05:23:48;;;;;;;1.67;0.40;;;8.10;1.00;;;;;;5561075;25;20459;-60
2024/04/11 05:26:22;;;;;;;1.93;0.40;;;8.20;1.00;;;;;;5560566;25;20462;-61
2024/04/11 05:28:48;;;;;;;3.10;0.47;;;8.20;1.00;;;;;;5563423;25;20661;-61
2024/04/11 05:31:17;;;;;;;1.23;0.50;;;8.20;1.00;;;;;;5569131;25;20517;-60
2024/04/11 05:33:44;;;;;;;0.70;0.43;;;8.20;1.00;;;;;;5591178;25;20565;-61
2024/04/11 05:36:17;;;;;;;0.53;0.30;;;8.30;1.00;;;;;;5594396;25;20462;-60
2024/04/11 05:38:44;;;;;;;2.20;0.50;;;8.20;1.00;;;;;;5561344;25;20519;-61
2024/04/11 05:41:16;;;;;;;0.70;0.50;;;8.30;1.00;;;;;;5579408;25;20507;-60
2024/04/11 05:43:42;;;;;;;1.07;0.47;;;8.30;99.90;;;;;;5575890;25;20500;-60
2024/04/11 05:46:13;;;;;;;0.70;0.40;;;8.30;99.90;;;;;;5586046;25;20446;-60
2024/04/11 05:48:40;;;;;;;0.83;0.40;;;8.20;1.00;;;;;;5599198;25;20520;-60
2024/04/11 05:51:10;;;;;;;0.70;0.40;;;8.20;1.00;;;;;;5598796;25;20957;-59
2024/04/11 05:53:36;;;;;;;1.23;0.60;;;8.20;1.00;;;;;;5597397;25;20446;-60
2024/04/11 05:56:06;;;;;;;1.77;0.60;;;8.20;1.00;;;;;;5592919;25;20500;-59
2024/04/11 05:58:38;;;;;;;0.70;0.40;;;8.20;1.00;;;;;;5595613;25;20748;-60
2024/04/11 06:01:09;;;;;;;0.70;0.43;;;8.20;1.00;;;;;;5596403;25;20465;-60
2024/04/11 06:03:35;;;;;;;0.70;0.43;;;8.20;1.00;;;;;;5569221;25;20514;-61
2024/04/11 06:06:04;;;;;;;2.17;0.50;;;8.30;99.90;;;;;;5558552;25;20471;-60
2024/04/11 06:08:30;;;;;;;1.13;0.40;;;8.30;1.00;;;;;;5571824;25;20508;-61
2024/04/11 06:10:59;;;;;;;1.10;0.53;;;8.30;99.90;;;;;;5597727;25;20449;-60
2024/04/11 06:13:27;;;;;;;1.43;0.53;;;8.60;99.90;;;;;;5591522;25;20488;-61
2024/04/11 06:16:00;;;;;;;3.20;0.50;;;8.80;1.00;;;;;;5566170;25;20789;-60
2024/04/11 06:18:28;;;;;;;1.60;0.50;;;9.00;99.90;;;;;;5561521;25;20458;-60
2024/04/11 06:20:57;;;;;;;1.23;0.43;;;8.90;1.00;;;;;;5560413;25;20454;-60
2024/04/11 06:23:26;;;;;;;0.90;0.50;;;8.80;1.00;;;;;;5591986;25;20474;-62
2024/04/11 06:25:57;;;;;;;1.83;0.57;;;8.70;1.00;;;;;;5596924;25;20461;-62
2024/04/11 06:28:24;;;;;;;0.87;0.40;;;8.60;99.90;;;;;;5560699;25;20518;-61
2024/04/11 06:30:54;;;;;;;2.20;0.70;;;8.70;1.00;;;;;;5561396;25;20757;-61
2024/04/11 06:33:22;;;;;;;1.73;0.50;;;8.70;99.90;;;;;;5526230;26;20453;-61
2024/04/11 06:35:53;;;;;;;2.03;0.50;;;8.70;99.90;;;;;;5597766;25;20541;-61
2024/04/11 06:38:20;;;;;;;1.60;0.60;;;8.80;99.90;;;;;;5593710;25;20573;-61
2024/04/11 06:40:52;;;;;;;5.57;0.77;;;8.80;99.90;;;;;;5595044;25;20979;-61
2024/04/11 06:43:19;;;;;;;0.80;0.60;;;8.70;99.90;;;;;;5560828;25;20459;-61
2024/04/11 06:45:48;;;;;;;0.70;0.50;;;8.70;1.00;;;;;;5558544;25;20690;-61
2024/04/11 06:48:15;;;;;;;0.73;0.60;;;8.80;1.00;;;;;;5559103;25;20470;-60
2024/04/11 06:50:46;;;;;;;0.80;0.50;;;8.90;99.90;;;;;;5561734;25;20761;-60
2024/04/11 06:53:12;;;;;;;1.60;0.57;;;9.00;1.00;;;;;;5588450;25;20823;-60
2024/04/11 06:55:46;;;;;;;1.30;0.70;;;9.10;1.00;;;;;;5597784;25;20550;-60
2024/04/11 06:58:17;;;;;;;1.10;0.60;;;9.20;1.00;;;;;;5596201;25;20438;-61
2024/04/11 07:00:46;;;;;;;1.20;0.60;;;9.30;1.00;;;;;;5599528;25;20723;-60
2024/04/11 07:03:16;;;;;;;1.17;0.70;;;9.30;99.90;;;;;;5598741;25;20891;-61
2024/04/11 07:05:59;;;;;;;2.73;0.83;;;9.40;99.90;;;;;;5600053;25;20457;-61
2024/04/11 07:08:30;;;;;;;1.23;0.70;;;9.50;99.90;;;;;;5559805;25;20462;-61
2024/04/11 07:11:12;;;;;;;0.70;0.50;;;9.70;99.90;;;;;;5597217;25;20878;-60
2024/04/11 07:13:38;;;;;;;1.57;0.57;;;10.00;99.90;;;;;;5601349;25;20446;-60
2024/04/11 07:16:08;;;;;;;3.07;0.80;;;10.40;1.00;;;;;;5588465;25;20562;-61
2024/04/11 07:18:44;;;;;;;1.53;0.70;;;10.50;1.00;;;;;;5564074;25;20511;-61
2024/04/11 07:21:17;;;;;;;1.10;0.57;;;10.50;99.90;;;;;;5564218;25;21085;-62
2024/04/11 07:23:44;;;;;;;1.40;0.50;;;10.50;99.90;;;;;;5563780;25;20455;-61
2024/04/11 07:26:15;;;;;;;4.97;0.70;;;10.60;99.90;;;;;;5563082;25;21100;-62
2024/04/11 07:28:45;;;;;;;1.23;0.70;;;10.90;99.90;;;;;;5560747;25;20587;-61
2024/04/11 07:31:15;;;;;;;1.60;0.60;;;10.90;99.90;;;;;;5594963;25;20783;-61
2024/04/11 07:33:42;;;;;;;2.33;0.70;;;10.90;99.90;;;;;;5600275;25;20469;-63
2024/04/11 07:36:13;;;;;;;1.07;0.63;;;11.10;99.90;;;;;;5599137;25;20763;-62
2024/04/11 07:38:42;;;;;;;1.03;0.67;;;11.00;99.90;;;;;;5599595;25;20953;-61
2024/04/11 07:41:20;;;;;;;1.30;0.63;;;10.90;99.90;;;;;;5591161;25;20499;-62
2024/04/11 07:43:47;;;;;;;1.00;0.70;;;11.00;99.90;;;;;;5601188;25;20525;-61
2024/04/11 07:46:16;;;;;;;1.37;0.67;;;11.20;99.90;;;;;;5583730;25;20514;-62
2024/04/11 07:48:47;;;;;;;1.20;0.70;;;11.20;99.90;;;;;;5558001;25;20474;-62
2024/04/11 07:51:16;;;;;;;13.13;1.27;;;11.30;99.90;;;;;;5561214;25;21064;-62
2024/04/11 07:53:46;;;;;;;1.47;0.80;;;11.30;99.90;;;;;;5564219;25;20507;-62
2024/04/11 07:56:19;;;;;;;2.27;0.70;;;11.50;99.90;;;;;;5562956;25;20550;-61
2024/04/11 07:58:45;;;;;;;9.70;0.90;;;11.90;99.90;;;;;;5560584;25;20455;-61
2024/04/11 08:01:14;;;;;;;3.17;0.80;;;11.90;73.90;;;;;;5563241;25;20523;-60
2024/04/11 08:03:40;;;;;;;1.03;0.70;;;11.80;35.60;;;;;;5563455;25;20536;-60
2024/04/11 08:06:10;;;;;;;1.40;0.67;;;11.80;31.60;;;;;;5561067;25;20519;-60
2024/04/11 08:08:36;;;;;;;1.30;0.70;;;11.70;28.00;;;;;;5571547;25;20508;-61
2024/04/11 08:11:10;;;;;;;1.77;0.70;;;11.70;41.10;;;;;;5595369;25;20457;-60
2024/04/11 08:13:36;;;;;;;1.43;0.90;;;11.90;23.50;;;;;;5586995;25;20448;-61
2024/04/11 08:16:08;;;;;;;1.63;0.50;;;11.90;1.00;;;;;;5567930;25;21035;-60
2024/04/11 08:18:35;;;;;;;1.70;0.70;;;12.20;26.10;;;;;;5598383;25;20513;-61
2024/04/11 08:21:08;;;;;;;4.13;0.83;;;12.20;1.00;;;;;;5598549;25;20510;-61
2024/04/11 08:23:35;;;;;;;2.10;0.60;;;12.20;1.00;;;;;;5561445;25;20875;-60
2024/04/11 08:26:03;;;;;;;8.23;0.80;;;12.30;1.00;;;;;;5563041;25;20908;-61
2024/04/11 08:28:37;;;;;;;0.90;0.60;;;12.60;1.00;;;;;;5579192;25;20508;-61
2024/04/11 08:31:06;;;;;;;2.00;0.60;;;12.80;1.00;;;;;;5539537;25;20559;-60
2024/04/11 08:33:32;;;;;;;0.80;0.60;;;13.00;1.00;;;;;;5536342;25;20520;-61
2024/04/11 08:36:05;;;;;;;2.97;0.53;;;13.00;1.00;;;;;;5573760;25;20786;-60
2024/04/11 08:38:33;;;;;;;1.50;0.50;;;13.20;1.00;;;;;;5579978;25;20470;-61
2024/04/11 08:41:09;;;;;;;0.97;0.43;;;13.40;1.00;;;;;;5589895;25;20904;-60
2024/04/11 08:43:39;;;;;;;1.80;0.60;;;13.70;1.00;;;;;;5569952;25;20595;-60
2024/04/11 08:46:10;;;;;;;1.33;0.70;;;13.90;1.00;;;;;;5569240;25;20512;-59
2024/04/11 08:48:37;;;;;;;1.80;0.60;;;14.00;1.00;;;;;;5590453;25;20777;-60
2024/04/11 08:51:14;;;;;;;0.90;0.50;;;14.00;1.00;;;;;;5587945;25;20544;-60
2024/04/11 08:53:45;;;;;;;3.90;0.60;;;14.00;1.00;;;;;;5596823;25;20446;-60
2024/04/11 08:56:16;;;;;;;2.60;0.57;;;14.10;1.00;;;;;;5599793;25;20449;-59
2024/04/11 08:58:47;;;;;;;1.47;0.47;;;14.00;1.00;;;;;;5592955;25;20919;-59
2024/04/11 09:01:18;;;;;;;1.00;0.70;;;13.90;1.00;;;;;;5577732;25;20453;-60
2024/04/11 09:03:48;;;;;;;1.60;0.40;;;14.00;1.00;;;;;;5599440;25;21006;-60
2024/04/11 09:06:23;;;;;;;3.43;0.80;;;14.10;1.00;;;;;;5600964;25;20465;-60
2024/04/11 09:08:50;;;;;;;1.10;0.60;;;14.30;1.00;;;;;;5597344;25;20399;-62
2024/04/11 09:11:19;;;;;;;1.00;0.53;;;14.40;1.00;;;;;;5591164;25;20430;-62
2024/04/11 09:13:47;;;;;;;1.10;0.60;;;14.50;1.00;;;;;;5554214;25;20459;-61
2024/04/11 09:16:26;;;;;;;1.43;0.70;;;14.60;1.00;;;;;;5561358;25;20514;-62
2024/04/11 09:19:01;;;;;;;1.10;0.50;;;14.60;1.00;;;;;;5561238;25;20527;-62
2024/04/11 09:21:31;;;;;;;1.37;0.40;;;14.90;1.00;;;;;;5578987;25;20996;-62
2024/04/11 09:23:57;;;;;;;1.33;0.47;;;14.90;1.00;;;;;;5558290;25;20487;-62
2024/04/11 09:26:28;;;;;;;0.83;0.50;;;14.70;1.00;;;;;;5557028;25;20970;-62
2024/04/11 09:28:57;;;;;;;0.60;0.40;;;14.70;1.00;;;;;;5549344;25;21043;-63
2024/04/11 09:31:29;;;;;;;1.00;0.50;;;14.80;1.00;;;;;;5593722;25;20514;-63
2024/04/11 09:33:58;;;;;;;2.63;0.40;;;14.80;1.00;;;;;;5555146;25;20479;-62
2024/04/11 09:36:28;;;;;;;0.90;0.40;;;14.80;1.00;;;;;;5587098;25;20535;-62
2024/04/11 09:39:04;;;;;;;1.60;0.60;;;15.00;1.00;;;;;;5593540;25;20521;-63
2024/04/11 09:41:37;;;;;;;0.60;0.30;;;15.20;1.00;;;;;;5589801;25;20462;-63
2024/04/11 09:44:08;;;;;;;0.90;0.40;;;15.40;1.00;;;;;;5576990;25;20529;-61
2024/04/11 09:46:41;;;;;;;1.50;0.33;;;15.70;1.00;;;;;;5560679;25;20455;-60
2024/04/11 09:49:09;;;;;;;0.70;0.40;;;15.70;1.00;;;;;;5554818;25;20447;-61
2024/04/11 09:51:41;;;;;;;0.50;0.30;;;15.40;1.00;;;;;;5554331;25;20460;-62
2024/04/11 09:54:13;;;;;;;1.50;0.40;;;15.40;1.00;;;;;;5560071;25;20466;-63
2024/04/11 09:56:46;;;;;;;0.90;0.30;;;15.50;1.00;;;;;;5596878;25;20521;-63
2024/04/11 09:59:15;;;;;;;0.60;0.30;;;15.80;1.00;;;;;;5582472;25;20467;-60
2024/04/11 10:01:47;;;;;;;2.20;0.40;;;16.00;1.00;;;;;;5560282;25;20493;-58
2024/04/11 10:04:21;;;;;;;0.63;0.33;;;16.30;1.00;;;;;;5561270;25;20447;-59
2024/04/11 10:06:59;;;;;;;0.90;0.40;;;16.50;1.00;;;;;;5559567;25;20466;-59
2024/04/11 10:09:29;;;;;;;0.70;0.40;;;16.60;1.00;;;;;;5559636;25;20387;-59
2024/04/11 10:12:03;;;;;;;1.57;0.27;;;16.60;1.00;;;;;;5563543;25;20272;-62
2024/04/11 10:14:35;;;;;;;2.20;0.40;;;16.70;1.00;;;;;;5595310;25;20449;-59
2024/04/11 10:17:13;;;;;;;0.40;0.23;;;16.90;1.00;;;;;;5596032;25;20521;-60
2024/04/11 10:19:43;;;;;;;0.47;0.33;;;17.20;1.00;;;;;;5595974;25;20446;-61
2024/04/11 10:22:15;;;;;;;0.50;0.30;;;17.60;1.00;;;;;;5595755;25;20442;-60
2024/04/11 10:24:45;;;;;;;0.53;0.40;;;17.80;1.00;;;;;;5575042;25;20992;-60
2024/04/11 10:27:18;;;;;;;0.57;0.30;;;17.80;1.00;;;;;;5560715;25;20531;-60
2024/04/11 10:29:48;;;;;;;1.43;0.30;;;17.80;1.00;;;;;;5557463;25;20443;-60
2024/04/11 10:32:21;;;;;;;0.50;0.30;;;17.90;1.00;;;;;;5560180;25;20506;-60
2024/04/11 10:34:55;;;;;;;1.70;0.40;;;17.70;1.00;;;;;;5559335;25;20455;-61
2024/04/11 10:37:26;;;;;;;0.70;0.40;;;17.80;1.00;;;;;;5555864;25;20794;-61
2024/04/11 10:39:57;;;;;;;1.47;0.50;;;18.30;1.00;;;;;;5557466;25;20510;-62
2024/04/11 10:42:36;;;;;;;1.03;0.30;;;18.60;1.00;;;;;;5555997;25;20526;-61
2024/04/11 10:45:10;;;;;;;0.50;0.30;;;18.70;1.00;;;;;;5560641;25;20455;-62
2024/04/11 10:47:41;;;;;;;0.50;0.30;;;18.90;1.00;;;;;;5558821;25;20509;-62
2024/04/11 10:50:09;;;;;;;0.50;0.20;;;18.80;1.00;;;;;;5556136;25;20492;-61
2024/04/11 10:52:47;;;;;;;0.70;0.30;;;18.50;1.00;;;;;;5559663;25;20562;-60
2024/04/11 10:55:23;;;;;;;0.33;0.20;;;18.60;1.00;;;;;;5566758;25;21012;-60
2024/04/11 10:58:08;;;;;;;0.40;0.20;;;18.50;1.00;;;;;;5595436;25;20512;-62
2024/04/11 11:03:40;;;;;;;0.70;0.40;;;18.50;1.00;;;;;;5520294;25;20571;-63
2024/04/11 11:06:15;;;;;;;0.60;0.30;;;18.60;1.00;;;;;;5517814;25;20456;-62
2024/04/11 11:08:43;;;;;;;0.83;0.20;;;18.70;1.00;;;;;;5520767;26;21117;-61
2024/04/11 11:11:14;;;;;;;1.20;0.23;;;18.80;1.00;;;;;;5522875;26;20452;-62
2024/04/11 11:13:42;;;;;;;0.90;0.30;;;19.20;1.00;;;;;;5522507;26;20522;-62
2024/04/11 11:16:21;;;;;;;0.90;0.30;;;19.30;1.00;;;;;;5519952;26;20876;-62
2024/04/11 11:18:47;;;;;;;0.70;0.40;;;19.40;1.00;;;;;;5576218;25;20521;-61
2024/04/11 11:21:19;;;;;;;1.27;0.30;;;19.60;1.00;;;;;;5594602;25;21055;-61
2024/04/11 11:23:46;;;;;;;0.70;0.40;;;19.70;1.00;;;;;;5587534;25;20455;-62
2024/04/11 11:26:22;;;;;;;0.70;0.30;;;19.60;1.00;;;;;;5561645;25;20487;-62
2024/04/11 11:28:51;;;;;;;1.03;0.40;;;19.30;1.00;;;;;;5582285;25;20461;-60
2024/04/11 11:31:30;;;;;;;0.70;0.20;;;19.60;1.00;;;;;;5584067;25;20521;-60
2024/04/11 11:33:58;;;;;;;0.53;0.30;;;19.80;1.00;;;;;;5597673;25;20438;-61
2024/04/11 11:36:27;;;;;;;0.50;0.30;;;20.00;1.00;;;;;;5597544;25;20961;-62
2024/04/11 11:38:54;;;;;;;0.53;0.30;;;20.30;1.00;;;;;;5598800;25;20910;-61
2024/04/11 11:41:23;;;;;;;1.07;0.40;;;20.20;1.00;;;;;;5596607;25;20509;-61
2024/04/11 11:43:54;;;;;;;0.50;0.30;;;20.30;1.00;;;;;;5554541;25;21022;-61
2024/04/11 11:46:37;;;;;;;0.90;0.30;;;20.50;1.00;;;;;;5596421;25;20875;-62
2024/04/11 11:49:06;;;;;;;0.70;0.30;;;20.10;1.00;;;;;;5545584;25;20480;-61
2024/04/11 11:51:35;;;;;;;0.60;0.30;;;20.10;1.00;;;;;;5528076;25;20577;-62
2024/04/11 11:54:12;;;;;;;0.50;0.30;;;20.20;1.00;;;;;;5545631;25;20459;-60
2024/04/11 11:56:42;;;;;;;1.83;0.30;;;20.30;1.00;;;;;;5575431;25;20469;-60
2024/04/11 11:59:08;;;;;;;0.77;0.27;;;20.50;1.00;;;;;;5598062;25;20994;-60
2024/04/11 12:01:51;;;;;;;0.60;0.30;;;20.40;1.00;;;;;;5578535;25;20470;-58
2024/04/11 12:04:17;;;;;;;1.20;0.40;;;20.10;1.00;;;;;;5578631;25;20869;-61
2024/04/11 12:06:48;;;;;;;0.80;0.40;;;20.20;1.00;;;;;;5603035;25;20481;-59
2024/04/11 12:09:14;;;;;;;4.73;0.40;;;20.20;1.00;;;;;;5599826;25;20518;-61
2024/04/11 12:12:07;;;;;;;0.40;0.30;;;19.90;1.00;;;;;;5600940;25;20461;-61
2024/04/11 12:14:34;;;;;;;1.20;0.37;;;19.70;1.00;;;;;;5525356;25;20527;-58
2024/04/11 12:17:06;;;;;;;0.80;0.30;;;19.70;1.00;;;;;;5581797;25;21202;-60
2024/04/11 12:19:35;;;;;;;3.27;0.20;;;19.20;1.00;;;;;;5601656;25;20462;-60
2024/04/11 12:22:11;;;;;;;0.80;0.23;;;19.30;1.00;;;;;;5599881;25;20928;-60
2024/04/11 12:24:39;;;;;;;0.50;0.30;;;19.80;1.00;;;;;;5579774;25;20454;-61
2024/04/11 12:27:07;;;;;;;0.70;0.30;;;20.00;1.00;;;;;;5560213;25;20941;-60
2024/04/11 12:29:34;;;;;;;0.60;0.37;;;20.10;1.00;;;;;;5592537;25;21126;-59
2024/04/11 12:32:07;;;;;;;1.20;0.40;;;20.40;1.00;;;;;;5595113;25;20525;-60
2024/04/11 12:34:33;;;;;;;0.50;0.30;;;19.90;1.00;;;;;;5595931;25;20462;-60
2024/04/11 12:37:10;;;;;;;0.60;0.40;;;19.90;1.00;;;;;;5594155;25;20446;-61
2024/04/11 12:39:41;;;;;;;0.70;0.40;;;19.90;1.00;;;;;;5598928;25;20670;-60
2024/04/11 12:42:14;;;;;;;2.73;0.30;;;19.90;1.00;;;;;;5521608;25;20511;-59
2024/04/11 12:44:40;;;;;;;1.90;0.40;;;20.00;99.90;;;;;;5520823;25;20457;-60
2024/04/11 12:47:16;;;;;;;0.73;0.30;;;20.20;1.00;;;;;;5519731;25;20523;-61
2024/04/11 12:49:47;;;;;;;0.50;0.37;;;20.50;99.90;;;;;;5550025;25;20462;-60
2024/04/11 12:52:16;;;;;;;0.50;0.30;;;20.70;99.90;;;;;;5595837;25;20583;-59
2024/04/11 12:54:42;;;;;;;0.60;0.40;;;20.50;99.90;;;;;;5597214;25;20638;-60
2024/04/11 12:57:10;;;;;;;0.63;0.40;;;20.10;99.90;;;;;;5599078;25;20446;-60
2024/04/11 12:59:37;;;;;;;0.90;0.40;;;19.40;99.90;;;;;;5598355;25;20522;-60
2024/04/11 13:02:08;;;;;;;0.50;0.30;;;19.50;99.90;;;;;;5560944;25;20475;-61
2024/04/11 13:04:37;;;;;;;1.27;0.43;;;19.70;99.90;;;;;;5588110;25;20469;-60
2024/04/11 13:07:10;;;;;;;0.50;0.30;;;19.70;99.90;;;;;;5598164;25;20533;-61
2024/04/11 13:09:48;;;;;;;0.50;0.30;;;19.80;99.90;;;;;;5524903;26;20850;-61
2024/04/11 13:12:19;;;;;;;1.23;0.30;;;19.90;99.90;;;;;;5525317;26;20543;-61
2024/04/11 13:14:57;;;;;;;0.70;0.30;;;20.10;99.90;;;;;;5525559;26;20802;-61
2024/04/11 13:17:26;;;;;;;1.20;0.30;;;20.20;99.90;;;;;;5593549;25;20521;-61